sensor_id;sensor_type;location;lat;lon;timestamp;temperature;humidity
18101;DHT22;9177;49.156;8.142;2022-09-21T00:00:37;20.80;99.90
18101;DHT22;9177;49.156;8.142;2022-09-21T00:03:04;20.70;99.90
18101;DHT22;9177;49.156;8.142;2022-09-21T00:05:31;20.70;99.90
18101;DHT22;9177;49.156;8.142;2022-09-21T00:07:59;20.70;99.90
18101;DHT22;9177;49.156;8.142;2022-09-21T00:10:27;20.70;99.90
18101;DHT22;9177;49.156;8.142;2022-09-21T00:12:56;20.70;99.90
18101;DHT22;9177;49.156;8.142;2022-09-21T00:15:24;20.70;99.90
18101;DHT22;9177;49.156;8.142;2022-09-21T00:17:53;20.70;99.90
18101;DHT22;9177;49.156;8.142;2022-09-21T00:20:20;20.70;99.90
18101;DHT22;9177;49.156;8.142;2022-09-21T00:22:47;20.70;99.90
18101;DHT22;9177;49.156;8.142;2022-09-21T00:25:15;20.70;99.90
18101;DHT22;9177;49.156;8.142;2022-09-21T00:27:43;20.70;99.90
18101;DHT22;9177;49.156;8.142;2022-09-21T00:30:13;20.70;99.90
18101;DHT22;9177;49.156;8.142;2022-09-21T00:32:40;20.70;99.90
18101;DHT22;9177;49.156;8.142;2022-09-21T00:35:10;20.60;99.90
18101;DHT22;9177;49.156;8.142;2022-09-21T00:37:37;20.70;99.90
18101;DHT22;9177;49.156;8.142;2022-09-21T00:40:05;20.70;99.90
18101;DHT22;9177;49.156;8.142;2022-09-21T00:42:33;20.70;99.90
18101;DHT22;9177;49.156;8.142;2022-09-21T00:45:00;20.70;99.90
18101;DHT22;9177;49.156;8.142;2022-09-21T00:47:32;20.70;99.90
18101;DHT22;9177;49.156;8.142;2022-09-21T00:50:03;20.60;99.90
18101;DHT22;9177;49.156;8.142;2022-09-21T00:52:33;20.60;99.90
18101;DHT22;9177;49.156;8.142;2022-09-21T00:55:04;20.60;99.90
18101;DHT22;9177;49.156;8.142;2022-09-21T00:57:34;20.60;99.90
18101;DHT22;9177;49.156;8.142;2022-09-21T01:00:05;20.60;99.90
18101;DHT22;9177;49.156;8.142;2022-09-21T01:02:35;20.60;99.90
18101;DHT22;9177;49.156;8.142;2022-09-21T01:05:05;20.60;99.90
18101;DHT22;9177;49.156;8.142;2022-09-21T01:07:34;20.60;99.90
18101;DHT22;9177;49.156;8.142;2022-09-21T01:10:04;20.60;99.90
18101;DHT22;9177;49.156;8.142;2022-09-21T01:12:47;20.60;99.90
18101;DHT22;9177;49.156;8.142;2022-09-21T01:15:28;20.60;99.90
18101;DHT22;9177;49.156;8.142;2022-09-21T01:18:07;20.60;99.90
18101;DHT22;9177;49.156;8.142;2022-09-21T01:20:56;20.60;99.90
18101;DHT22;9177;49.156;8.142;2022-09-21T01:24:01;20.60;99.90
18101;DHT22;9177;49.156;8.142;2022-09-21T01:26:47;20.60;99.90
18101;DHT22;9177;49.156;8.142;2022-09-21T01:29:23;20.60;99.90
18101;DHT22;9177;49.156;8.142;2022-09-21T01:31:53;20.60;99.80
18101;DHT22;9177;49.156;8.142;2022-09-21T01:34:26;20.60;99.80
18101;DHT22;9177;49.156;8.142;2022-09-21T01:36:57;20.60;99.80
18101;DHT22;9177;49.156;8.142;2022-09-21T01:39:28;20.60;99.80
18101;DHT22;9177;49.156;8.142;2022-09-21T01:41:55;20.60;99.80
18101;DHT22;9177;49.156;8.142;2022-09-21T01:44:27;20.60;99.70
18101;DHT22;9177;49.156;8.142;2022-09-21T01:46:56;20.50;99.70
18101;DHT22;9177;49.156;8.142;2022-09-21T01:49:31;20.60;99.70
18101;DHT22;9177;49.156;8.142;2022-09-21T01:52:04;20.50;99.70
18101;DHT22;9177;49.156;8.142;2022-09-21T01:54:38;20.50;99.90
18101;DHT22;9177;49.156;8.142;2022-09-21T01:57:08;20.50;99.70
18101;DHT22;9177;49.156;8.142;2022-09-21T01:59:45;20.50;99.70
18101;DHT22;9177;49.156;8.142;2022-09-21T02:02:20;20.50;99.70
18101;DHT22;9177;49.156;8.142;2022-09-21T02:04:48;20.60;99.70
18101;DHT22;9177;49.156;8.142;2022-09-21T02:07:16;20.50;99.70
18101;DHT22;9177;49.156;8.142;2022-09-21T02:09:44;20.50;99.60
18101;DHT22;9177;49.156;8.142;2022-09-21T02:12:12;20.60;99.60
18101;DHT22;9177;49.156;8.142;2022-09-21T02:14:40;20.50;99.60
18101;DHT22;9177;49.156;8.142;2022-09-21T02:17:17;20.60;99.60
18101;DHT22;9177;49.156;8.142;2022-09-21T02:19:56;20.50;99.60
18101;DHT22;9177;49.156;8.142;2022-09-21T02:22:32;20.50;99.60
18101;DHT22;9177;49.156;8.142;2022-09-21T02:25:06;20.50;99.60
18101;DHT22;9177;49.156;8.142;2022-09-21T02:27:39;20.50;99.50
18101;DHT22;9177;49.156;8.142;2022-09-21T02:30:14;20.50;99.50
18101;DHT22;9177;49.156;8.142;2022-09-21T02:32:46;20.50;99.50
18101;DHT22;9177;49.156;8.142;2022-09-21T02:35:24;20.50;99.50
18101;DHT22;9177;49.156;8.142;2022-09-21T02:38:00;20.50;99.80
18101;DHT22;9177;49.156;8.142;2022-09-21T02:40:34;20.50;99.40
18101;DHT22;9177;49.156;8.142;2022-09-21T02:43:08;20.50;99.80
18101;DHT22;9177;49.156;8.142;2022-09-21T02:45:42;20.50;99.40
18101;DHT22;9177;49.156;8.142;2022-09-21T02:48:12;20.50;99.40
18101;DHT22;9177;49.156;8.142;2022-09-21T02:50:43;20.50;99.40
18101;DHT22;9177;49.156;8.142;2022-09-21T02:53:11;20.50;99.40
18101;DHT22;9177;49.156;8.142;2022-09-21T02:55:40;20.50;99.40
18101;DHT22;9177;49.156;8.142;2022-09-21T02:58:12;20.50;99.40
18101;DHT22;9177;49.156;8.142;2022-09-21T03:00:42;20.50;99.30
18101;DHT22;9177;49.156;8.142;2022-09-21T03:03:16;20.50;99.30
18101;DHT22;9177;49.156;8.142;2022-09-21T03:05:46;20.40;99.30
18101;DHT22;9177;49.156;8.142;2022-09-21T03:08:13;20.40;99.30
18101;DHT22;9177;49.156;8.142;2022-09-21T03:10:40;20.40;99.30
18101;DHT22;9177;49.156;8.142;2022-09-21T03:13:08;20.50;99.30
18101;DHT22;9177;49.156;8.142;2022-09-21T03:15:35;20.40;99.20
18101;DHT22;9177;49.156;8.142;2022-09-21T03:18:05;20.40;99.60
18101;DHT22;9177;49.156;8.142;2022-09-21T03:20:34;20.50;99.20
18101;DHT22;9177;49.156;8.142;2022-09-21T03:23:01;20.40;99.20
18101;DHT22;9177;49.156;8.142;2022-09-21T03:25:29;20.40;99.10
18101;DHT22;9177;49.156;8.142;2022-09-21T03:27:56;20.40;99.10
18101;DHT22;9177;49.156;8.142;2022-09-21T03:30:25;20.40;99.10
18101;DHT22;9177;49.156;8.142;2022-09-21T03:32:54;20.40;99.10
18101;DHT22;9177;49.156;8.142;2022-09-21T03:35:23;20.40;99.10
18101;DHT22;9177;49.156;8.142;2022-09-21T03:37:51;20.40;99.10
18101;DHT22;9177;49.156;8.142;2022-09-21T03:40:19;20.40;99.10
18101;DHT22;9177;49.156;8.142;2022-09-21T03:42:46;20.40;99.10
18101;DHT22;9177;49.156;8.142;2022-09-21T03:45:13;20.40;99.10
18101;DHT22;9177;49.156;8.142;2022-09-21T03:47:40;20.40;99.10
18101;DHT22;9177;49.156;8.142;2022-09-21T03:50:08;20.40;99.10
18101;DHT22;9177;49.156;8.142;2022-09-21T03:52:36;20.40;99.10
18101;DHT22;9177;49.156;8.142;2022-09-21T03:55:04;20.40;99.00
18101;DHT22;9177;49.156;8.142;2022-09-21T03:57:33;20.40;99.00
18101;DHT22;9177;49.156;8.142;2022-09-21T04:00:01;20.40;99.00
18101;DHT22;9177;49.156;8.142;2022-09-21T04:02:28;20.40;99.00
18101;DHT22;9177;49.156;8.142;2022-09-21T04:04:56;20.40;99.00
18101;DHT22;9177;49.156;8.142;2022-09-21T04:07:23;20.40;99.00
18101;DHT22;9177;49.156;8.142;2022-09-21T04:09:52;20.40;99.00
18101;DHT22;9177;49.156;8.142;2022-09-21T04:12:23;20.40;99.00
18101;DHT22;9177;49.156;8.142;2022-09-21T04:14:50;20.40;98.90
18101;DHT22;9177;49.156;8.142;2022-09-21T04:17:17;20.40;98.90
18101;DHT22;9177;49.156;8.142;2022-09-21T04:19:44;20.40;98.90
18101;DHT22;9177;49.156;8.142;2022-09-21T04:22:11;20.30;98.90
18101;DHT22;9177;49.156;8.142;2022-09-21T04:24:38;20.40;98.90
18101;DHT22;9177;49.156;8.142;2022-09-21T04:27:08;20.40;98.90
18101;DHT22;9177;49.156;8.142;2022-09-21T04:29:35;20.30;98.80
18101;DHT22;9177;49.156;8.142;2022-09-21T04:32:02;20.30;98.80
18101;DHT22;9177;49.156;8.142;2022-09-21T04:34:29;20.30;98.80
18101;DHT22;9177;49.156;8.142;2022-09-21T04:36:57;20.30;98.80
18101;DHT22;9177;49.156;8.142;2022-09-21T04:39:23;20.30;98.80
18101;DHT22;9177;49.156;8.142;2022-09-21T04:41:51;20.30;98.80
18101;DHT22;9177;49.156;8.142;2022-09-21T04:44:19;20.30;98.80
18101;DHT22;9177;49.156;8.142;2022-09-21T04:46:47;20.30;98.70
18101;DHT22;9177;49.156;8.142;2022-09-21T04:49:13;20.30;98.70
18101;DHT22;9177;49.156;8.142;2022-09-21T04:51:40;20.30;99.10
18101;DHT22;9177;49.156;8.142;2022-09-21T04:54:07;20.30;98.70
18101;DHT22;9177;49.156;8.142;2022-09-21T04:56:35;20.30;98.70
18101;DHT22;9177;49.156;8.142;2022-09-21T04:59:02;20.30;98.70
18101;DHT22;9177;49.156;8.142;2022-09-21T05:01:30;20.30;98.70
18101;DHT22;9177;49.156;8.142;2022-09-21T05:03:57;20.30;98.70
18101;DHT22;9177;49.156;8.142;2022-09-21T05:06:26;20.30;98.70
18101;DHT22;9177;49.156;8.142;2022-09-21T05:08:53;20.30;98.60
18101;DHT22;9177;49.156;8.142;2022-09-21T05:11:38;20.30;98.60
18101;DHT22;9177;49.156;8.142;2022-09-21T05:14:05;20.30;98.60
18101;DHT22;9177;49.156;8.142;2022-09-21T05:16:34;20.30;98.60
18101;DHT22;9177;49.156;8.142;2022-09-21T05:19:01;20.30;98.60
18101;DHT22;9177;49.156;8.142;2022-09-21T05:21:28;20.30;98.60
18101;DHT22;9177;49.156;8.142;2022-09-21T05:23:56;20.30;98.60
18101;DHT22;9177;49.156;8.142;2022-09-21T05:26:23;20.30;98.60
18101;DHT22;9177;49.156;8.142;2022-09-21T05:28:51;20.30;98.60
18101;DHT22;9177;49.156;8.142;2022-09-21T05:31:29;20.30;98.60
18101;DHT22;9177;49.156;8.142;2022-09-21T05:34:05;20.30;98.50
18101;DHT22;9177;49.156;8.142;2022-09-21T05:36:43;20.30;98.50
18101;DHT22;9177;49.156;8.142;2022-09-21T05:39:12;20.30;98.50
18101;DHT22;9177;49.156;8.142;2022-09-21T05:41:39;20.30;98.50
18101;DHT22;9177;49.156;8.142;2022-09-21T05:44:10;20.30;98.50
18101;DHT22;9177;49.156;8.142;2022-09-21T05:46:40;20.30;98.50
18101;DHT22;9177;49.156;8.142;2022-09-21T05:49:15;20.30;98.50
18101;DHT22;9177;49.156;8.142;2022-09-21T05:51:53;20.30;98.50
18101;DHT22;9177;49.156;8.142;2022-09-21T05:54:27;20.30;98.50
18101;DHT22;9177;49.156;8.142;2022-09-21T05:57:03;20.30;98.50
18101;DHT22;9177;49.156;8.142;2022-09-21T05:59:41;20.30;98.50
18101;DHT22;9177;49.156;8.142;2022-09-21T06:02:20;20.30;98.50
18101;DHT22;9177;49.156;8.142;2022-09-21T06:04:51;20.30;98.50
18101;DHT22;9177;49.156;8.142;2022-09-21T06:07:19;20.30;98.50
18101;DHT22;9177;49.156;8.142;2022-09-21T06:09:46;20.30;98.50
18101;DHT22;9177;49.156;8.142;2022-09-21T06:12:13;20.30;98.50
18101;DHT22;9177;49.156;8.142;2022-09-21T06:14:40;20.30;98.50
18101;DHT22;9177;49.156;8.142;2022-09-21T06:17:08;20.30;98.50
18101;DHT22;9177;49.156;8.142;2022-09-21T06:19:35;20.30;98.50
18101;DHT22;9177;49.156;8.142;2022-09-21T06:25:08;20.30;98.50
18101;DHT22;9177;49.156;8.142;2022-09-21T06:27:35;20.30;98.50
18101;DHT22;9177;49.156;8.142;2022-09-21T06:30:03;20.30;98.50
18101;DHT22;9177;49.156;8.142;2022-09-21T06:32:30;20.30;98.50
18101;DHT22;9177;49.156;8.142;2022-09-21T06:34:57;20.30;98.50
18101;DHT22;9177;49.156;8.142;2022-09-21T06:37:24;20.30;98.50
18101;DHT22;9177;49.156;8.142;2022-09-21T06:39:50;20.30;98.50
18101;DHT22;9177;49.156;8.142;2022-09-21T06:42:19;20.30;98.50
18101;DHT22;9177;49.156;8.142;2022-09-21T06:44:45;20.30;98.50
18101;DHT22;9177;49.156;8.142;2022-09-21T06:47:12;20.30;98.50
18101;DHT22;9177;49.156;8.142;2022-09-21T06:49:39;20.30;98.50
18101;DHT22;9177;49.156;8.142;2022-09-21T06:52:06;20.30;98.50
18101;DHT22;9177;49.156;8.142;2022-09-21T06:54:33;20.30;98.50
18101;DHT22;9177;49.156;8.142;2022-09-21T06:57:01;20.30;98.40
18101;DHT22;9177;49.156;8.142;2022-09-21T06:59:32;20.40;98.40
18101;DHT22;9177;49.156;8.142;2022-09-21T07:01:58;20.40;98.40
18101;DHT22;9177;49.156;8.142;2022-09-21T07:04:25;20.40;98.30
18101;DHT22;9177;49.156;8.142;2022-09-21T07:06:54;20.50;98.30
18101;DHT22;9177;49.156;8.142;2022-09-21T07:09:21;20.50;98.30
18101;DHT22;9177;49.156;8.142;2022-09-21T07:11:47;20.50;98.30
18101;DHT22;9177;49.156;8.142;2022-09-21T07:14:14;20.50;98.30
18101;DHT22;9177;49.156;8.142;2022-09-21T07:16:43;20.50;98.20
18101;DHT22;9177;49.156;8.142;2022-09-21T07:19:10;20.60;98.20
18101;DHT22;9177;49.156;8.142;2022-09-21T07:21:37;20.60;98.20
18101;DHT22;9177;49.156;8.142;2022-09-21T07:24:04;20.60;98.10
18101;DHT22;9177;49.156;8.142;2022-09-21T07:26:31;20.70;98.10
18101;DHT22;9177;49.156;8.142;2022-09-21T07:28:58;20.70;98.10
18101;DHT22;9177;49.156;8.142;2022-09-21T07:31:25;20.70;98.10
18101;DHT22;9177;49.156;8.142;2022-09-21T07:33:56;20.70;98.00
18101;DHT22;9177;49.156;8.142;2022-09-21T07:36:24;20.70;98.00
18101;DHT22;9177;49.156;8.142;2022-09-21T07:38:51;20.80;98.00
18101;DHT22;9177;49.156;8.142;2022-09-21T07:41:18;20.80;98.00
18101;DHT22;9177;49.156;8.142;2022-09-21T07:43:45;20.80;98.00
18101;DHT22;9177;49.156;8.142;2022-09-21T07:46:13;20.80;98.00
18101;DHT22;9177;49.156;8.142;2022-09-21T07:48:40;20.80;98.00
18101;DHT22;9177;49.156;8.142;2022-09-21T07:51:10;20.90;98.00
18101;DHT22;9177;49.156;8.142;2022-09-21T07:53:41;20.90;97.90
18101;DHT22;9177;49.156;8.142;2022-09-21T07:56:11;20.90;97.90
18101;DHT22;9177;49.156;8.142;2022-09-21T07:58:38;20.90;97.90
18101;DHT22;9177;49.156;8.142;2022-09-21T08:01:23;20.90;97.90
18101;DHT22;9177;49.156;8.142;2022-09-21T08:03:51;20.90;97.90
18101;DHT22;9177;49.156;8.142;2022-09-21T08:06:20;20.90;97.90
18101;DHT22;9177;49.156;8.142;2022-09-21T08:08:51;20.90;97.90
18101;DHT22;9177;49.156;8.142;2022-09-21T08:11:20;20.90;97.90
18101;DHT22;9177;49.156;8.142;2022-09-21T08:13:48;21.00;97.90
18101;DHT22;9177;49.156;8.142;2022-09-21T08:16:17;21.00;97.90
18101;DHT22;9177;49.156;8.142;2022-09-21T08:18:44;21.00;97.90
18101;DHT22;9177;49.156;8.142;2022-09-21T08:21:12;21.00;98.20
18101;DHT22;9177;49.156;8.142;2022-09-21T08:23:40;21.00;97.90
18101;DHT22;9177;49.156;8.142;2022-09-21T08:26:11;21.00;97.90
18101;DHT22;9177;49.156;8.142;2022-09-21T08:28:46;21.00;97.90
18101;DHT22;9177;49.156;8.142;2022-09-21T08:31:16;21.00;97.90
18101;DHT22;9177;49.156;8.142;2022-09-21T08:33:44;21.00;97.90
18101;DHT22;9177;49.156;8.142;2022-09-21T08:36:11;21.00;97.80
18101;DHT22;9177;49.156;8.142;2022-09-21T08:38:40;21.10;97.90
18101;DHT22;9177;49.156;8.142;2022-09-21T08:41:16;21.10;97.90
18101;DHT22;9177;49.156;8.142;2022-09-21T08:43:47;21.10;97.90
18101;DHT22;9177;49.156;8.142;2022-09-21T08:46:17;21.10;97.90
18101;DHT22;9177;49.156;8.142;2022-09-21T08:48:49;21.10;97.80
18101;DHT22;9177;49.156;8.142;2022-09-21T08:51:22;21.10;97.80
18101;DHT22;9177;49.156;8.142;2022-09-21T08:53:54;21.10;97.80
18101;DHT22;9177;49.156;8.142;2022-09-21T08:56:23;21.10;97.80
18101;DHT22;9177;49.156;8.142;2022-09-21T08:58:51;21.10;97.80
18101;DHT22;9177;49.156;8.142;2022-09-21T09:01:32;21.20;97.80
18101;DHT22;9177;49.156;8.142;2022-09-21T09:04:25;21.20;97.80
18101;DHT22;9177;49.156;8.142;2022-09-21T09:07:04;21.20;97.80
18101;DHT22;9177;49.156;8.142;2022-09-21T09:12:38;21.20;97.80
18101;DHT22;9177;49.156;8.142;2022-09-21T09:15:36;21.20;97.80
18101;DHT22;9177;49.156;8.142;2022-09-21T09:18:10;21.20;97.80
18101;DHT22;9177;49.156;8.142;2022-09-21T09:20:43;21.20;97.80
18101;DHT22;9177;49.156;8.142;2022-09-21T09:23:16;21.20;97.80
18101;DHT22;9177;49.156;8.142;2022-09-21T09:25:49;21.20;97.80
18101;DHT22;9177;49.156;8.142;2022-09-21T09:28:23;21.20;97.80
18101;DHT22;9177;49.156;8.142;2022-09-21T09:30:56;21.20;97.80
18101;DHT22;9177;49.156;8.142;2022-09-21T09:33:27;21.20;97.70
18101;DHT22;9177;49.156;8.142;2022-09-21T09:36:00;21.20;97.70
18101;DHT22;9177;49.156;8.142;2022-09-21T09:38:31;21.20;97.70
18101;DHT22;9177;49.156;8.142;2022-09-21T09:41:17;21.30;97.80
18101;DHT22;9177;49.156;8.142;2022-09-21T09:43:52;21.30;97.80
18101;DHT22;9177;49.156;8.142;2022-09-21T09:46:28;21.30;97.80
18101;DHT22;9177;49.156;8.142;2022-09-21T09:49:11;21.30;97.80
18101;DHT22;9177;49.156;8.142;2022-09-21T09:51:40;21.30;97.80
18101;DHT22;9177;49.156;8.142;2022-09-21T09:54:13;21.30;97.80
18101;DHT22;9177;49.156;8.142;2022-09-21T09:56:42;21.30;97.80
18101;DHT22;9177;49.156;8.142;2022-09-21T09:59:13;21.30;97.80
18101;DHT22;9177;49.156;8.142;2022-09-21T10:01:57;21.30;97.80
18101;DHT22;9177;49.156;8.142;2022-09-21T10:04:29;21.30;97.80
18101;DHT22;9177;49.156;8.142;2022-09-21T10:06:55;21.30;97.70
18101;DHT22;9177;49.156;8.142;2022-09-21T10:09:25;21.30;97.70
18101;DHT22;9177;49.156;8.142;2022-09-21T10:11:56;21.30;97.70
18101;DHT22;9177;49.156;8.142;2022-09-21T10:14:25;21.40;97.70
18101;DHT22;9177;49.156;8.142;2022-09-21T10:16:55;21.40;97.70
18101;DHT22;9177;49.156;8.142;2022-09-21T10:19:26;21.40;97.70
18101;DHT22;9177;49.156;8.142;2022-09-21T10:21:57;21.40;97.70
18101;DHT22;9177;49.156;8.142;2022-09-21T10:24:27;21.40;97.70
18101;DHT22;9177;49.156;8.142;2022-09-21T10:27:02;21.40;97.60
18101;DHT22;9177;49.156;8.142;2022-09-21T10:29:37;21.40;97.60
18101;DHT22;9177;49.156;8.142;2022-09-21T10:32:17;21.50;97.60
18101;DHT22;9177;49.156;8.142;2022-09-21T10:35:12;21.50;97.60
18101;DHT22;9177;49.156;8.142;2022-09-21T10:37:42;21.50;97.60
18101;DHT22;9177;49.156;8.142;2022-09-21T10:40:34;21.50;97.60
18101;DHT22;9177;49.156;8.142;2022-09-21T10:43:03;21.60;97.60
18101;DHT22;9177;49.156;8.142;2022-09-21T10:45:31;21.60;97.60
18101;DHT22;9177;49.156;8.142;2022-09-21T10:48:07;21.60;97.50
18101;DHT22;9177;49.156;8.142;2022-09-21T10:50:35;21.60;97.60
18101;DHT22;9177;49.156;8.142;2022-09-21T10:53:11;21.60;97.70
18101;DHT22;9177;49.156;8.142;2022-09-21T10:55:40;21.60;97.80
18101;DHT22;9177;49.156;8.142;2022-09-21T10:58:13;21.70;97.80
18101;DHT22;9177;49.156;8.142;2022-09-21T11:00:41;21.70;97.90
18101;DHT22;9177;49.156;8.142;2022-09-21T11:03:31;21.70;97.80
18101;DHT22;9177;49.156;8.142;2022-09-21T11:06:02;21.70;97.80
18101;DHT22;9177;49.156;8.142;2022-09-21T11:11:45;21.70;98.00
18101;DHT22;9177;49.156;8.142;2022-09-21T11:14:25;21.70;97.80
18101;DHT22;9177;49.156;8.142;2022-09-21T11:16:55;21.70;97.90
18101;DHT22;9177;49.156;8.142;2022-09-21T11:19:32;21.80;98.00
18101;DHT22;9177;49.156;8.142;2022-09-21T11:22:04;21.80;98.00
18101;DHT22;9177;49.156;8.142;2022-09-21T11:24:39;21.80;97.90
18101;DHT22;9177;49.156;8.142;2022-09-21T11:27:11;21.90;97.90
18101;DHT22;9177;49.156;8.142;2022-09-21T11:29:49;21.90;97.80
18101;DHT22;9177;49.156;8.142;2022-09-21T11:32:44;22.00;97.80
18101;DHT22;9177;49.156;8.142;2022-09-21T11:35:34;22.00;97.80
18101;DHT22;9177;49.156;8.142;2022-09-21T11:38:11;22.00;97.70
18101;DHT22;9177;49.156;8.142;2022-09-21T11:40:54;22.10;97.70
18101;DHT22;9177;49.156;8.142;2022-09-21T11:43:44;22.10;97.60
18101;DHT22;9177;49.156;8.142;2022-09-21T11:46:23;22.20;97.70
18101;DHT22;9177;49.156;8.142;2022-09-21T11:49:10;22.20;97.60
18101;DHT22;9177;49.156;8.142;2022-09-21T11:51:53;22.20;97.50
18101;DHT22;9177;49.156;8.142;2022-09-21T11:57:26;22.30;97.50
18101;DHT22;9177;49.156;8.142;2022-09-21T12:00:06;22.40;97.50
18101;DHT22;9177;49.156;8.142;2022-09-21T12:05:54;22.50;97.30
18101;DHT22;9177;49.156;8.142;2022-09-21T12:11:32;22.60;97.30
18101;DHT22;9177;49.156;8.142;2022-09-21T12:14:10;22.60;97.30
18101;DHT22;9177;49.156;8.142;2022-09-21T12:16:46;22.70;97.20
18101;DHT22;9177;49.156;8.142;2022-09-21T12:19:20;22.70;97.20
18101;DHT22;9177;49.156;8.142;2022-09-21T12:21:57;22.70;97.20
18101;DHT22;9177;49.156;8.142;2022-09-21T12:24:30;22.80;97.10
18101;DHT22;9177;49.156;8.142;2022-09-21T12:27:03;22.80;97.10
18101;DHT22;9177;49.156;8.142;2022-09-21T12:29:35;22.80;97.10
18101;DHT22;9177;49.156;8.142;2022-09-21T12:32:12;22.80;97.00
18101;DHT22;9177;49.156;8.142;2022-09-21T12:34:44;22.90;97.00
18101;DHT22;9177;49.156;8.142;2022-09-21T12:37:17;22.90;96.90
18101;DHT22;9177;49.156;8.142;2022-09-21T12:39:48;22.90;96.90
18101;DHT22;9177;49.156;8.142;2022-09-21T12:42:26;23.00;96.90
18101;DHT22;9177;49.156;8.142;2022-09-21T12:44:57;23.00;96.90
18101;DHT22;9177;49.156;8.142;2022-09-21T12:47:34;23.00;96.90
18101;DHT22;9177;49.156;8.142;2022-09-21T12:50:05;23.00;96.90
18101;DHT22;9177;49.156;8.142;2022-09-21T12:52:39;23.00;96.80
18101;DHT22;9177;49.156;8.142;2022-09-21T12:55:23;23.10;96.90
18101;DHT22;9177;49.156;8.142;2022-09-21T12:58:05;23.10;96.80
18101;DHT22;9177;49.156;8.142;2022-09-21T13:00:39;23.10;96.80
18101;DHT22;9177;49.156;8.142;2022-09-21T13:03:14;23.10;96.80
18101;DHT22;9177;49.156;8.142;2022-09-21T13:05:53;23.10;96.80
18101;DHT22;9177;49.156;8.142;2022-09-21T13:08:30;23.10;96.80
18101;DHT22;9177;49.156;8.142;2022-09-21T13:11:00;23.10;96.70
18101;DHT22;9177;49.156;8.142;2022-09-21T13:13:32;23.20;96.70
18101;DHT22;9177;49.156;8.142;2022-09-21T13:16:00;23.20;96.70
18101;DHT22;9177;49.156;8.142;2022-09-21T13:18:30;23.20;96.70
18101;DHT22;9177;49.156;8.142;2022-09-21T13:20:59;23.20;96.70
18101;DHT22;9177;49.156;8.142;2022-09-21T13:23:32;23.20;96.70
18101;DHT22;9177;49.156;8.142;2022-09-21T13:26:08;23.20;96.80
18101;DHT22;9177;49.156;8.142;2022-09-21T13:29:02;22.90;97.10
18101;DHT22;9177;49.156;8.142;2022-09-21T13:31:51;22.90;97.00
18101;DHT22;9177;49.156;8.142;2022-09-21T13:34:33;23.00;96.90
18101;DHT22;9177;49.156;8.142;2022-09-21T13:37:30;22.90;97.00
18101;DHT22;9177;49.156;8.142;2022-09-21T13:43:45;22.70;97.30
18101;DHT22;9177;49.156;8.142;2022-09-21T13:49:25;22.90;97.20
18101;DHT22;9177;49.156;8.142;2022-09-21T13:51:57;23.20;96.90
18101;DHT22;9177;49.156;8.142;2022-09-21T13:54:27;23.30;96.80
18101;DHT22;9177;49.156;8.142;2022-09-21T13:57:17;23.30;96.70
18101;DHT22;9177;49.156;8.142;2022-09-21T13:59:47;23.30;96.70
18101;DHT22;9177;49.156;8.142;2022-09-21T14:02:30;23.40;96.60
18101;DHT22;9177;49.156;8.142;2022-09-21T14:05:05;23.40;96.70
18101;DHT22;9177;49.156;8.142;2022-09-21T14:07:33;23.40;96.80
18101;DHT22;9177;49.156;8.142;2022-09-21T14:10:02;23.50;96.70
18101;DHT22;9177;49.156;8.142;2022-09-21T14:12:33;23.60;96.60
18101;DHT22;9177;49.156;8.142;2022-09-21T14:15:39;23.60;96.70
18101;DHT22;9177;49.156;8.142;2022-09-21T14:18:18;23.60;96.60
18101;DHT22;9177;49.156;8.142;2022-09-21T14:21:10;23.50;96.50
18101;DHT22;9177;49.156;8.142;2022-09-21T14:27:01;23.40;96.70
18101;DHT22;9177;49.156;8.142;2022-09-21T14:29:37;23.40;96.70
18101;DHT22;9177;49.156;8.142;2022-09-21T14:32:13;23.40;96.70
18101;DHT22;9177;49.156;8.142;2022-09-21T14:34:44;23.30;96.80
18101;DHT22;9177;49.156;8.142;2022-09-21T14:37:23;23.30;96.70
18101;DHT22;9177;49.156;8.142;2022-09-21T14:39:52;23.40;96.70
18101;DHT22;9177;49.156;8.142;2022-09-21T14:42:22;23.50;96.70
18101;DHT22;9177;49.156;8.142;2022-09-21T14:44:55;23.60;96.60
18101;DHT22;9177;49.156;8.142;2022-09-21T14:47:51;23.60;96.50
18101;DHT22;9177;49.156;8.142;2022-09-21T14:50:29;23.60;96.50
18101;DHT22;9177;49.156;8.142;2022-09-21T14:53:10;23.70;96.40
18101;DHT22;9177;49.156;8.142;2022-09-21T14:55:57;23.70;96.40
18101;DHT22;9177;49.156;8.142;2022-09-21T14:58:41;23.70;96.40
18101;DHT22;9177;49.156;8.142;2022-09-21T15:01:33;23.80;96.40
18101;DHT22;9177;49.156;8.142;2022-09-21T15:04:17;23.70;96.40
18101;DHT22;9177;49.156;8.142;2022-09-21T15:06:52;23.60;96.50
18101;DHT22;9177;49.156;8.142;2022-09-21T15:09:51;23.70;96.50
18101;DHT22;9177;49.156;8.142;2022-09-21T15:12:44;23.60;96.50
18101;DHT22;9177;49.156;8.142;2022-09-21T15:15:25;23.60;96.50
18101;DHT22;9177;49.156;8.142;2022-09-21T15:17:56;23.60;96.60
18101;DHT22;9177;49.156;8.142;2022-09-21T15:20:28;23.60;96.70
18101;DHT22;9177;49.156;8.142;2022-09-21T15:22:55;23.50;96.70
18101;DHT22;9177;49.156;8.142;2022-09-21T15:25:24;23.60;96.70
18101;DHT22;9177;49.156;8.142;2022-09-21T15:27:53;23.60;96.70
18101;DHT22;9177;49.156;8.142;2022-09-21T15:30:22;23.40;96.80
18101;DHT22;9177;49.156;8.142;2022-09-21T15:32:52;23.30;96.90
18101;DHT22;9177;49.156;8.142;2022-09-21T15:35:22;23.20;97.10
18101;DHT22;9177;49.156;8.142;2022-09-21T15:37:52;23.10;97.30
18101;DHT22;9177;49.156;8.142;2022-09-21T15:40:21;23.10;97.10
18101;DHT22;9177;49.156;8.142;2022-09-21T15:42:58;23.20;97.20
18101;DHT22;9177;49.156;8.142;2022-09-21T15:45:26;23.30;97.10
18101;DHT22;9177;49.156;8.142;2022-09-21T15:47:54;23.30;97.00
18101;DHT22;9177;49.156;8.142;2022-09-21T15:50:23;23.30;97.10
18101;DHT22;9177;49.156;8.142;2022-09-21T15:52:55;23.30;97.00
18101;DHT22;9177;49.156;8.142;2022-09-21T15:55:23;23.30;97.00
18101;DHT22;9177;49.156;8.142;2022-09-21T15:57:53;23.30;96.90
18101;DHT22;9177;49.156;8.142;2022-09-21T16:00:23;23.30;97.00
18101;DHT22;9177;49.156;8.142;2022-09-21T16:03:03;23.30;96.90
18101;DHT22;9177;49.156;8.142;2022-09-21T16:05:40;23.30;96.90
18101;DHT22;9177;49.156;8.142;2022-09-21T16:08:18;23.40;96.90
18101;DHT22;9177;49.156;8.142;2022-09-21T16:10:47;23.40;96.90
18101;DHT22;9177;49.156;8.142;2022-09-21T16:13:19;23.30;96.90
18101;DHT22;9177;49.156;8.142;2022-09-21T16:16:05;23.30;96.80
18101;DHT22;9177;49.156;8.142;2022-09-21T16:18:40;23.30;96.80
18101;DHT22;9177;49.156;8.142;2022-09-21T16:21:20;23.30;96.90
18101;DHT22;9177;49.156;8.142;2022-09-21T16:23:51;23.30;96.90
18101;DHT22;9177;49.156;8.142;2022-09-21T16:26:23;23.20;96.90
18101;DHT22;9177;49.156;8.142;2022-09-21T16:29:16;23.20;96.90
18101;DHT22;9177;49.156;8.142;2022-09-21T16:31:44;23.20;96.90
18101;DHT22;9177;49.156;8.142;2022-09-21T16:34:28;23.10;97.00
18101;DHT22;9177;49.156;8.142;2022-09-21T16:37:21;23.10;97.00
18101;DHT22;9177;49.156;8.142;2022-09-21T16:39:52;23.00;97.10
18101;DHT22;9177;49.156;8.142;2022-09-21T16:42:20;23.00;97.10
18101;DHT22;9177;49.156;8.142;2022-09-21T16:44:48;22.90;97.10
18101;DHT22;9177;49.156;8.142;2022-09-21T16:47:17;22.90;97.20